createdAt,value
2019-03-17T00:01:57.996Z,69.83
2019-03-17T00:04:47.595Z,70.05
2019-03-17T00:07:36.952Z,70.65
2019-03-17T00:10:26.366Z,70.44
2019-03-17T00:13:17.828Z,70.83
2019-03-17T00:16:06.619Z,71.02
2019-03-17T00:18:55.971Z,72.37
2019-03-17T00:21:46.254Z,71.78
2019-03-17T00:24:35.780Z,71.85
2019-03-17T00:27:25.783Z,71.94
2019-03-17T00:30:14.079Z,72.47
2019-03-17T00:33:03.595Z,72.58
2019-03-17T00:35:54.003Z,72.98
2019-03-17T00:38:43.771Z,73.03
2019-03-17T00:41:32.774Z,72.80
2019-03-17T00:44:22.711Z,73.49
2019-03-17T00:47:12.164Z,73.36
2019-03-17T00:50:02.604Z,75.11
2019-03-17T00:52:52.258Z,75.09
2019-03-17T00:55:41.688Z,74.04
2019-03-17T00:58:31.060Z,75.68
2019-03-17T01:01:20.599Z,75.73
2019-03-17T01:04:10.532Z,75.80
2019-03-17T01:06:59.934Z,75.47
2019-03-17T01:09:49.305Z,76.38
2019-03-17T01:12:38.754Z,76.40
2019-03-17T01:15:27.950Z,76.26
2019-03-17T01:18:17.410Z,75.27
2019-03-17T01:21:06.940Z,76.46
2019-03-17T01:23:57.306Z,76.94
2019-03-17T01:26:47.600Z,76.79
2019-03-17T01:29:37.309Z,77.64
2019-03-17T01:32:28.145Z,77.57
2019-03-17T01:35:17.560Z,78.22
2019-03-17T01:38:07.411Z,78.17
2019-03-17T01:40:57.031Z,78.61
2019-03-17T01:43:46.895Z,78.73
2019-03-17T01:46:36.463Z,78.27
2019-03-17T01:49:26.391Z,78.87
2019-03-17T01:52:16.444Z,79.47
2019-03-17T01:55:06.527Z,79.59
2019-03-17T01:57:55.894Z,80.37
2019-03-17T02:00:46.089Z,81.42
2019-03-17T02:03:36.164Z,81.00
2019-03-17T02:06:26.168Z,81.33
2019-03-17T02:09:15.783Z,81.19
2019-03-17T02:12:05.724Z,81.14
2019-03-17T02:14:54.829Z,81.60
2019-03-17T02:17:44.888Z,81.61
2019-03-17T02:20:34.933Z,81.60
2019-03-17T02:23:24.541Z,82.27
2019-03-17T02:26:13.853Z,82.04
2019-03-17T02:29:03.093Z,81.61
2019-03-17T02:31:52.435Z,81.89
2019-03-17T02:34:41.578Z,82.01
2019-03-17T02:37:31.385Z,82.89
2019-03-17T02:40:20.717Z,82.47
2019-03-17T02:43:10.172Z,82.56
2019-03-17T02:46:03.011Z,82.41
2019-03-17T02:48:51.448Z,83.55
2019-03-17T02:51:40.764Z,82.82
2019-03-17T02:54:30.165Z,83.95
2019-03-17T02:57:19.482Z,84.44
2019-03-17T03:00:10.746Z,83.84
2019-03-17T03:03:00.152Z,85.26
2019-03-17T03:05:55.189Z,84.96
2019-03-17T03:08:41.784Z,86.02
2019-03-17T03:11:32.986Z,86.03
2019-03-17T03:14:23.298Z,86.69
2019-03-17T03:17:13.195Z,86.10
2019-03-17T03:20:03.060Z,86.96
2019-03-17T03:22:51.969Z,87.28
2019-03-17T03:25:41.402Z,87.90
2019-03-17T03:28:31.261Z,88.01
2019-03-17T03:31:21.076Z,87.94
2019-03-17T03:34:10.691Z,86.88
2019-03-17T03:37:00.754Z,87.11
2019-03-17T03:39:49.293Z,89.97
2019-03-17T03:42:38.675Z,90.08
2019-03-17T03:45:28.450Z,88.71
2019-03-17T03:48:17.840Z,88.94
2019-03-17T03:51:07.650Z,87.57
2019-03-17T03:53:56.060Z,87.42
2019-03-17T03:56:46.252Z,89.08
2019-03-17T03:59:34.537Z,89.08
2019-03-17T04:02:24.375Z,87.60
2019-03-17T04:05:12.851Z,87.60
2019-03-17T04:08:02.822Z,88.38
2019-03-17T04:10:52.655Z,87.34
2019-03-17T04:13:42.026Z,86.63
2019-03-17T04:16:30.767Z,85.78
2019-03-17T04:19:18.918Z,87.67
2019-03-17T04:22:07.385Z,89.16
2019-03-17T04:24:55.905Z,89.80
2019-03-17T04:27:44.447Z,89.69
2019-03-17T04:30:33.312Z,91.36
2019-03-17T04:33:21.624Z,90.90
2019-03-17T04:36:09.863Z,90.89
2019-03-17T04:38:58.633Z,93.06
2019-03-17T04:41:46.545Z,93.71
2019-03-17T04:44:35.123Z,93.37
2019-03-17T04:47:23.672Z,93.14
2019-03-17T04:50:11.984Z,93.63
2019-03-17T04:53:00.309Z,93.43
2019-03-17T04:55:48.094Z,93.01
2019-03-17T04:58:36.584Z,92.53
2019-03-17T05:01:24.711Z,90.87
2019-03-17T05:04:13.059Z,91.57
2019-03-17T05:07:01.195Z,91.14
2019-03-17T05:09:49.892Z,91.92
2019-03-17T05:12:37.687Z,91.27
2019-03-17T05:15:25.377Z,91.15
2019-03-17T05:18:13.127Z,90.20
2019-03-17T05:21:01.358Z,89.26
2019-03-17T05:23:50.260Z,89.14
2019-03-17T05:26:39.266Z,87.91
2019-03-17T05:29:26.911Z,86.69
2019-03-17T05:32:15.291Z,88.66
2019-03-17T05:35:03.472Z,88.21
2019-03-17T05:37:51.646Z,89.04
2019-03-17T05:40:42.615Z,87.80
2019-03-17T05:43:30.925Z,85.38
2019-03-17T05:46:19.348Z,84.65
2019-03-17T05:49:08.258Z,83.68
2019-03-17T05:52:00.425Z,82.32
2019-03-17T05:54:48.398Z,82.66
2019-03-17T05:57:36.746Z,80.98
2019-03-17T06:00:25.356Z,80.12
2019-03-17T06:03:13.378Z,79.32
2019-03-17T06:06:01.896Z,77.62
2019-03-17T06:08:50.444Z,76.96
2019-03-17T06:11:39.009Z,75.83
2019-03-17T06:14:27.337Z,75.30
2019-03-17T06:17:15.173Z,74.27
2019-03-17T06:20:03.388Z,76.40
2019-03-17T06:22:52.062Z,76.77
2019-03-17T06:25:39.589Z,76.41
2019-03-17T06:28:28.557Z,76.22
2019-03-17T06:31:16.250Z,75.15
2019-03-17T06:34:05.147Z,74.68
2019-03-17T06:36:52.987Z,73.81
2019-03-17T06:39:41.467Z,74.79
2019-03-17T06:42:29.266Z,72.71
2019-03-17T06:45:17.951Z,71.81
2019-03-17T06:48:06.051Z,69.76
2019-03-17T06:50:54.573Z,69.10
2019-03-17T06:53:42.325Z,67.75
2019-03-17T06:56:33.071Z,68.43
2019-03-17T06:59:21.396Z,69.29
2019-03-17T07:02:09.719Z,68.34
2019-03-17T07:04:57.879Z,67.47
2019-03-17T07:07:46.421Z,66.10
2019-03-17T07:10:34.195Z,65.50
2019-03-17T07:13:22.825Z,65.25
2019-03-17T07:16:11.266Z,64.77
2019-03-17T07:18:59.701Z,63.19
2019-03-17T07:21:47.480Z,63.01
2019-03-17T07:24:36.224Z,63.09
2019-03-17T07:27:24.436Z,62.01
2019-03-17T07:30:13.862Z,60.67
2019-03-17T07:33:02.562Z,61.80
2019-03-17T07:35:51.713Z,61.74
2019-03-17T07:38:43.679Z,61.28
2019-03-17T07:41:32.164Z,60.99
2019-03-17T07:44:20.288Z,60.27
2019-03-17T07:47:08.893Z,57.71
2019-03-17T07:49:56.694Z,57.90
2019-03-17T07:52:45.244Z,57.17
2019-03-17T07:55:33.798Z,56.53
2019-03-17T07:58:23.371Z,57.10
2019-03-17T08:01:11.463Z,56.41
2019-03-17T08:04:01.107Z,55.10
2019-03-17T08:06:49.336Z,55.47
2019-03-17T08:09:37.994Z,56.59
2019-03-17T08:12:26.399Z,54.51
2019-03-17T08:15:14.198Z,53.91
2019-03-17T08:18:01.980Z,53.18
2019-03-17T08:20:50.349Z,53.05
2019-03-17T08:23:38.783Z,51.66
2019-03-17T08:26:27.297Z,53.21
2019-03-17T08:29:15.929Z,51.16
2019-03-17T08:32:05.815Z,51.27
2019-03-17T08:34:54.768Z,49.20
2019-03-17T08:37:44.285Z,48.32
2019-03-17T08:40:34.203Z,49.34
2019-03-17T08:43:23.467Z,48.32
2019-03-17T08:46:12.851Z,47.97
2019-03-17T08:49:02.202Z,47.04
2019-03-17T08:51:52.457Z,47.77
2019-03-17T08:54:47.441Z,47.06
2019-03-17T08:57:37.177Z,45.61
2019-03-17T09:00:26.621Z,46.87
2019-03-17T09:03:15.404Z,46.60
2019-03-17T09:06:04.908Z,46.31
2019-03-17T09:08:54.329Z,46.43
2019-03-17T09:11:44.179Z,46.47
2019-03-17T09:14:33.633Z,45.53
2019-03-17T09:17:23.286Z,45.37
2019-03-17T09:20:12.476Z,44.83
2019-03-17T09:23:01.945Z,44.82
2019-03-17T09:25:51.638Z,43.81
2019-03-17T09:28:41.567Z,41.82
2019-03-17T09:31:31.040Z,40.74
2019-03-17T09:34:20.933Z,42.19
2019-03-17T09:37:10.931Z,42.43
2019-03-17T09:40:01.104Z,42.42
2019-03-17T09:42:51.191Z,39.26
2019-03-17T09:45:40.599Z,38.67
2019-03-17T09:48:30.494Z,39.59
2019-03-17T09:51:19.643Z,39.51
2019-03-17T09:54:09.460Z,39.59
2019-03-17T09:56:59.332Z,36.69
2019-03-17T09:59:49.998Z,36.30
2019-03-17T10:02:40.235Z,34.64
2019-03-17T10:05:29.960Z,32.89
2019-03-17T10:08:19.275Z,33.93
2019-03-17T10:11:10.755Z,32.37
2019-03-17T10:13:59.960Z,31.21
2019-03-17T10:16:49.665Z,29.85
2019-03-17T10:19:39.127Z,28.63
2019-03-17T10:22:28.975Z,28.72
2019-03-17T10:25:19.213Z,27.88
2019-03-17T10:28:08.337Z,27.61
2019-03-17T10:30:58.071Z,27.31
2019-03-17T10:33:47.893Z,27.25
2019-03-17T10:36:37.967Z,27.50
2019-03-17T10:39:27.590Z,26.68
2019-03-17T10:42:17.677Z,25.32
2019-03-17T10:45:07.327Z,24.64
2019-03-17T10:47:56.976Z,25.16
2019-03-17T10:50:49.758Z,24.67
2019-03-17T10:53:38.254Z,24.95
2019-03-17T10:56:27.652Z,23.89
2019-03-17T10:59:17.065Z,24.00
2019-03-17T11:13:14.886Z,24.19
2019-03-17T11:16:04.373Z,24.01
2019-03-17T11:18:53.930Z,24.04
2019-03-17T11:21:43.496Z,23.42
2019-03-17T11:24:32.831Z,23.91
2019-03-17T11:27:22.076Z,24.07
2019-03-17T11:30:13.266Z,23.83
2019-03-17T11:33:02.801Z,23.93
2019-03-17T11:35:51.889Z,23.38
2019-03-17T11:38:41.195Z,22.88
2019-03-17T11:41:30.744Z,23.66
2019-03-17T11:44:20.038Z,22.62
2019-03-17T11:47:11.523Z,23.46
2019-03-17T11:50:00.575Z,23.35
2019-03-17T11:52:51.168Z,23.24
2019-03-17T11:55:40.849Z,22.98
2019-03-17T11:58:30.242Z,23.55
2019-03-17T12:01:19.692Z,22.59
2019-03-17T12:04:09.377Z,23.25
2019-03-17T12:06:58.635Z,22.78
2019-03-17T12:09:50.514Z,22.11
2019-03-17T12:12:38.337Z,22.57
2019-03-17T12:15:27.895Z,22.90
2019-03-17T12:18:17.142Z,22.29
2019-03-17T12:21:06.947Z,22.77
2019-03-17T12:23:56.181Z,22.15
2019-03-17T12:26:45.738Z,22.39
2019-03-17T12:29:34.989Z,22.52
2019-03-17T12:32:24.865Z,22.02
2019-03-17T12:35:14.238Z,21.93
2019-03-17T12:38:03.398Z,21.65
2019-03-17T12:40:52.165Z,21.90
2019-03-17T12:43:41.154Z,21.91
2019-03-17T12:46:30.473Z,21.87
2019-03-17T12:49:19.723Z,21.67
2019-03-17T12:52:08.929Z,21.22
2019-03-17T12:54:58.324Z,20.38
2019-03-17T12:57:47.604Z,20.69
2019-03-17T13:00:36.342Z,20.14
2019-03-17T13:03:25.193Z,20.13
2019-03-17T13:06:14.068Z,19.76
2019-03-17T13:09:04.668Z,20.33
2019-03-17T13:11:54.244Z,19.92
2019-03-17T13:14:43.771Z,19.35
2019-03-17T13:17:33.489Z,18.97
2019-03-17T13:20:23.005Z,18.95
2019-03-17T13:23:12.433Z,19.61
2019-03-17T13:26:01.354Z,19.37
2019-03-17T13:28:50.961Z,19.74
2019-03-17T13:31:40.258Z,20.60
2019-03-17T13:34:29.098Z,21.42
2019-03-17T13:37:18.477Z,21.06
2019-03-17T13:40:09.395Z,20.36
2019-03-17T13:42:58.849Z,19.54
2019-03-17T13:45:48.618Z,19.87
2019-03-17T13:48:37.882Z,18.33
2019-03-17T13:51:26.950Z,17.37
2019-03-17T13:54:16.447Z,16.92
2019-03-17T13:57:05.641Z,17.96
2019-03-17T13:59:55.286Z,17.74
2019-03-17T14:02:44.987Z,17.90
2019-03-17T14:05:33.739Z,16.76
2019-03-17T14:08:23.024Z,17.29
2019-03-17T14:11:12.371Z,17.22
2019-03-17T14:14:01.682Z,17.45
2019-03-17T14:16:51.003Z,17.45
2019-03-17T14:19:40.745Z,16.94
2019-03-17T14:22:35.195Z,17.14
2019-03-17T14:25:27.965Z,16.10
2019-03-17T14:28:17.053Z,16.10
2019-03-17T14:31:06.651Z,15.70
2019-03-17T14:33:55.849Z,16.03
2019-03-17T14:36:45.219Z,15.91
2019-03-17T14:39:34.612Z,16.75
2019-03-17T14:42:24.565Z,16.29
2019-03-17T14:45:14.714Z,16.51
2019-03-17T14:48:04.855Z,17.39
2019-03-17T14:50:54.235Z,16.59
2019-03-17T14:53:43.729Z,17.11
2019-03-17T14:56:33.123Z,17.70
2019-03-17T14:59:22.511Z,18.94
2019-03-17T15:02:11.867Z,20.15
2019-03-17T15:05:01.077Z,21.03
2019-03-17T15:07:50.463Z,21.74
2019-03-17T15:10:40.200Z,21.40
2019-03-17T15:13:28.209Z,21.31
2019-03-17T15:16:16.354Z,21.45
2019-03-17T15:19:04.787Z,21.52
2019-03-17T15:21:53.017Z,22.27
2019-03-17T15:24:41.250Z,22.12
2019-03-17T15:27:29.698Z,22.97
2019-03-17T15:30:19.103Z,22.77
2019-03-17T15:33:07.051Z,22.83
2019-03-17T15:35:55.481Z,23.17
2019-03-17T15:38:43.514Z,23.50
2019-03-17T15:41:31.323Z,24.45
2019-03-17T15:44:19.544Z,24.84
2019-03-17T15:47:07.640Z,24.98
2019-03-17T15:49:55.714Z,25.76
2019-03-17T15:52:44.053Z,26.58
2019-03-17T15:55:32.656Z,26.54
2019-03-17T15:58:20.542Z,27.61
2019-03-17T16:01:09.076Z,27.80
2019-03-17T16:03:57.179Z,28.17
2019-03-17T16:06:45.272Z,28.13
2019-03-17T16:09:33.245Z,28.69
2019-03-17T16:12:21.689Z,29.52
2019-03-17T16:15:10.822Z,30.03
2019-03-17T16:17:58.845Z,30.40
2019-03-17T16:20:49.797Z,31.85
2019-03-17T16:23:38.136Z,31.87
2019-03-17T16:26:26.113Z,32.31
2019-03-17T16:29:14.313Z,32.53
2019-03-17T16:32:02.509Z,32.81
2019-03-17T16:34:50.823Z,33.64
2019-03-17T16:37:38.517Z,33.33
2019-03-17T16:40:26.968Z,34.11
2019-03-17T16:43:15.386Z,36.59
2019-03-17T16:46:04.048Z,38.21
2019-03-17T16:48:52.744Z,40.20
2019-03-17T16:51:40.441Z,41.27
2019-03-17T16:54:31.052Z,41.19
2019-03-17T16:57:19.559Z,40.98
2019-03-17T17:00:09.007Z,40.30
2019-03-17T17:02:57.143Z,38.61
2019-03-17T17:05:45.260Z,38.44
2019-03-17T17:08:33.711Z,37.50
2019-03-17T17:11:21.902Z,37.86
2019-03-17T17:14:09.848Z,37.79
2019-03-17T17:16:57.961Z,39.66
2019-03-17T17:19:46.586Z,40.59
2019-03-17T17:22:34.264Z,42.17
2019-03-17T17:25:22.463Z,41.66
2019-03-17T17:28:10.669Z,41.79
2019-03-17T17:30:59.101Z,41.23
2019-03-17T17:33:47.700Z,41.06
2019-03-17T17:36:35.862Z,41.65
2019-03-17T17:39:24.258Z,42.53
2019-03-17T17:42:11.880Z,43.40
2019-03-17T17:45:00.367Z,44.53
2019-03-17T17:47:48.962Z,43.83
2019-03-17T17:50:36.815Z,43.24
2019-03-17T17:53:25.355Z,43.99
2019-03-17T17:56:13.815Z,42.78
2019-03-17T17:59:02.343Z,43.49
2019-03-17T18:01:50.478Z,43.84
2019-03-17T18:04:38.934Z,44.40
2019-03-17T18:07:27.004Z,44.36
2019-03-17T18:10:15.208Z,43.67
2019-03-17T18:13:03.789Z,42.25
2019-03-17T18:15:51.707Z,43.86
2019-03-17T18:18:39.736Z,43.06
2019-03-17T18:21:28.014Z,44.77
2019-03-17T18:24:16.100Z,44.61
2019-03-17T18:27:04.704Z,46.86
2019-03-17T18:29:53.230Z,45.64
2019-03-17T18:32:41.460Z,43.90
2019-03-17T18:35:29.971Z,43.68
2019-03-17T18:38:18.663Z,46.22
2019-03-17T18:41:07.123Z,48.98
2019-03-17T18:43:55.020Z,49.68
2019-03-17T18:46:43.104Z,49.15
2019-03-17T18:49:30.864Z,50.89
2019-03-17T18:52:19.409Z,50.35
2019-03-17T18:55:07.695Z,50.64
2019-03-17T18:57:55.935Z,51.26
2019-03-17T19:00:44.562Z,52.17
2019-03-17T19:03:32.303Z,52.09
2019-03-17T19:06:20.852Z,52.71
2019-03-17T19:09:09.289Z,52.93
2019-03-17T19:11:57.891Z,54.00
2019-03-17T19:14:46.288Z,53.25
2019-03-17T19:17:34.639Z,52.91
2019-03-17T19:20:22.989Z,53.02
2019-03-17T19:23:11.457Z,56.01
2019-03-17T19:25:59.539Z,55.79
2019-03-17T19:28:48.036Z,52.21
2019-03-17T19:31:36.632Z,53.10
2019-03-17T19:34:24.402Z,52.44
2019-03-17T19:37:12.862Z,54.13
2019-03-17T19:40:01.832Z,52.93
2019-03-17T19:42:58.481Z,53.09
2019-03-17T19:45:39.929Z,53.82
2019-03-17T19:48:28.422Z,54.96
2019-03-17T19:51:18.932Z,55.02
2019-03-17T19:54:05.962Z,54.80
2019-03-17T19:56:54.718Z,53.37
2019-03-17T19:59:42.837Z,52.93
2019-03-17T20:02:31.022Z,54.71
2019-03-17T20:05:19.540Z,53.25
2019-03-17T20:08:07.484Z,54.79
2019-03-17T20:10:56.074Z,53.82
2019-03-17T20:13:44.113Z,54.37
2019-03-17T20:16:32.554Z,55.02
2019-03-17T20:19:21.172Z,56.20
2019-03-17T20:22:09.100Z,57.52
2019-03-17T20:24:57.476Z,58.86
2019-03-17T20:27:45.804Z,59.52
2019-03-17T20:30:33.992Z,59.35
2019-03-17T20:33:22.495Z,61.13
2019-03-17T20:36:10.542Z,60.93
2019-03-17T20:38:58.254Z,62.11
2019-03-17T20:41:46.847Z,61.32
2019-03-17T20:44:34.864Z,62.37
2019-03-17T20:47:23.594Z,64.98
2019-03-17T20:50:11.858Z,65.58
2019-03-17T20:52:59.948Z,63.69
2019-03-17T20:55:48.496Z,63.68
2019-03-17T20:58:36.822Z,62.18
2019-03-17T21:01:24.987Z,62.64
2019-03-17T21:04:13.472Z,61.35
2019-03-17T21:07:02.011Z,62.38
2019-03-17T21:09:50.191Z,64.74
2019-03-17T21:12:37.963Z,64.73
2019-03-17T21:15:26.224Z,66.20
2019-03-17T21:18:13.868Z,64.98
2019-03-17T21:21:01.896Z,63.92
2019-03-17T21:23:49.911Z,65.08
2019-03-17T21:26:37.794Z,66.32
2019-03-17T21:29:26.170Z,67.34
2019-03-17T21:32:14.776Z,68.32
2019-03-17T21:35:02.509Z,69.80
2019-03-17T21:37:50.583Z,69.76
2019-03-17T21:40:38.657Z,69.35
2019-03-17T21:43:27.184Z,68.45
2019-03-17T21:46:15.665Z,68.12
2019-03-17T21:49:04.009Z,66.87
2019-03-17T21:51:52.448Z,69.27
2019-03-17T21:54:40.541Z,71.18
2019-03-17T21:57:28.303Z,71.09
2019-03-17T22:00:17.179Z,71.08
2019-03-17T22:03:05.037Z,70.66
2019-03-17T22:05:53.498Z,71.49
2019-03-17T22:08:41.984Z,72.13
2019-03-17T22:11:30.646Z,73.16
2019-03-17T22:14:18.673Z,72.70
2019-03-17T22:17:06.551Z,72.33
2019-03-17T22:19:54.809Z,71.52
2019-03-17T22:22:43.377Z,71.71
2019-03-17T22:25:31.084Z,72.29
2019-03-17T22:28:19.844Z,73.44
2019-03-17T22:31:07.997Z,73.19
2019-03-17T22:33:56.605Z,73.13
2019-03-17T22:36:44.601Z,71.40
2019-03-17T22:39:34.289Z,70.34
2019-03-17T22:42:22.651Z,69.76
2019-03-17T22:45:11.029Z,69.82
2019-03-17T22:47:59.148Z,70.79
2019-03-17T22:50:47.148Z,69.61
2019-03-17T22:53:35.131Z,69.19
2019-03-17T22:56:23.568Z,71.52
2019-03-17T22:59:11.716Z,71.65
2019-03-17T23:01:59.633Z,74.43
2019-03-17T23:04:47.842Z,75.49
2019-03-17T23:07:36.233Z,77.47
2019-03-17T23:10:24.609Z,78.23
2019-03-17T23:13:13.298Z,78.43
2019-03-17T23:16:01.437Z,79.75
2019-03-17T23:18:49.611Z,79.43
2019-03-17T23:21:38.066Z,79.36
2019-03-17T23:24:25.935Z,78.05
2019-03-17T23:27:13.912Z,78.06
2019-03-17T23:30:01.590Z,76.72
2019-03-17T23:32:52.968Z,76.21
2019-03-17T23:35:41.068Z,74.75
2019-03-17T23:38:29.610Z,75.66
2019-03-17T23:41:18.152Z,78.58
2019-03-17T23:44:06.130Z,81.53
2019-03-17T23:46:54.593Z,81.22
2019-03-17T23:49:42.977Z,80.02
2019-03-17T23:52:31.628Z,78.55
2019-03-17T23:55:19.337Z,77.54
2019-03-17T23:58:07.740Z,76.78
